sensor_id;sensor_type;location;lat;lon;timestamp;temperature;humidity
20337;DHT22;10326;53.660;10.200;2023-03-23T00:02:08;14.30;84.00
20337;DHT22;10326;53.660;10.200;2023-03-23T00:04:35;14.30;84.10
20337;DHT22;10326;53.660;10.200;2023-03-23T00:07:04;14.30;84.20
20337;DHT22;10326;53.660;10.200;2023-03-23T00:09:31;14.30;84.30
20337;DHT22;10326;53.660;10.200;2023-03-23T00:12:00;14.30;84.30
20337;DHT22;10326;53.660;10.200;2023-03-23T00:14:31;14.30;84.50
20337;DHT22;10326;53.660;10.200;2023-03-23T00:17:07;14.20;84.50
20337;DHT22;10326;53.660;10.200;2023-03-23T00:19:37;14.20;84.60
20337;DHT22;10326;53.660;10.200;2023-03-23T00:22:13;14.20;84.80
20337;DHT22;10326;53.660;10.200;2023-03-23T00:24:42;14.20;85.00
20337;DHT22;10326;53.660;10.200;2023-03-23T00:27:10;14.10;85.00
20337;DHT22;10326;53.660;10.200;2023-03-23T00:29:41;14.10;85.10
20337;DHT22;10326;53.660;10.200;2023-03-23T00:32:11;14.10;85.30
20337;DHT22;10326;53.660;10.200;2023-03-23T00:34:42;14.10;85.40
20337;DHT22;10326;53.660;10.200;2023-03-23T00:37:13;14.10;85.50
20337;DHT22;10326;53.660;10.200;2023-03-23T00:39:42;14.10;85.80
20337;DHT22;10326;53.660;10.200;2023-03-23T00:42:12;14.10;85.90
20337;DHT22;10326;53.660;10.200;2023-03-23T00:44:40;14.10;86.00
20337;DHT22;10326;53.660;10.200;2023-03-23T00:47:09;14.00;86.00
20337;DHT22;10326;53.660;10.200;2023-03-23T00:49:38;14.00;86.10
20337;DHT22;10326;53.660;10.200;2023-03-23T00:52:06;14.00;86.30
20337;DHT22;10326;53.660;10.200;2023-03-23T00:54:36;14.00;86.40
20337;DHT22;10326;53.660;10.200;2023-03-23T00:57:04;14.00;86.70
20337;DHT22;10326;53.660;10.200;2023-03-23T00:59:32;14.00;86.80
20337;DHT22;10326;53.660;10.200;2023-03-23T01:01:59;14.00;86.80
20337;DHT22;10326;53.660;10.200;2023-03-23T01:04:26;14.00;86.90
20337;DHT22;10326;53.660;10.200;2023-03-23T01:06:57;14.00;86.90
20337;DHT22;10326;53.660;10.200;2023-03-23T01:09:26;14.00;86.90
20337;DHT22;10326;53.660;10.200;2023-03-23T01:11:54;14.00;87.00
20337;DHT22;10326;53.660;10.200;2023-03-23T01:14:23;14.00;87.10
20337;DHT22;10326;53.660;10.200;2023-03-23T01:16:51;14.10;87.10
20337;DHT22;10326;53.660;10.200;2023-03-23T01:19:18;14.00;87.00
20337;DHT22;10326;53.660;10.200;2023-03-23T01:21:45;14.00;87.00
20337;DHT22;10326;53.660;10.200;2023-03-23T01:24:12;14.00;87.10
20337;DHT22;10326;53.660;10.200;2023-03-23T01:26:41;14.00;87.10
20337;DHT22;10326;53.660;10.200;2023-03-23T01:29:09;14.00;87.20
20337;DHT22;10326;53.660;10.200;2023-03-23T01:31:37;14.00;87.30
20337;DHT22;10326;53.660;10.200;2023-03-23T01:34:06;14.00;87.40
20337;DHT22;10326;53.660;10.200;2023-03-23T01:36:34;14.00;87.40
20337;DHT22;10326;53.660;10.200;2023-03-23T01:39:04;14.00;87.60
20337;DHT22;10326;53.660;10.200;2023-03-23T01:41:33;14.00;87.60
20337;DHT22;10326;53.660;10.200;2023-03-23T01:44:07;14.00;87.70
20337;DHT22;10326;53.660;10.200;2023-03-23T01:46:57;14.00;87.70
20337;DHT22;10326;53.660;10.200;2023-03-23T01:49:27;14.00;87.70
20337;DHT22;10326;53.660;10.200;2023-03-23T01:52:00;14.00;87.80
20337;DHT22;10326;53.660;10.200;2023-03-23T01:54:28;13.90;87.90
20337;DHT22;10326;53.660;10.200;2023-03-23T01:57:04;13.90;87.90
20337;DHT22;10326;53.660;10.200;2023-03-23T01:59:34;13.90;88.20
20337;DHT22;10326;53.660;10.200;2023-03-23T02:02:22;13.90;88.10
20337;DHT22;10326;53.660;10.200;2023-03-23T02:04:56;13.90;88.10
20337;DHT22;10326;53.660;10.200;2023-03-23T02:07:27;13.90;88.30
20337;DHT22;10326;53.660;10.200;2023-03-23T02:09:57;13.90;88.10
20337;DHT22;10326;53.660;10.200;2023-03-23T02:12:26;13.90;88.20
20337;DHT22;10326;53.660;10.200;2023-03-23T02:14:53;13.90;88.30
20337;DHT22;10326;53.660;10.200;2023-03-23T02:17:27;13.90;88.30
20337;DHT22;10326;53.660;10.200;2023-03-23T02:20:17;13.90;88.60
20337;DHT22;10326;53.660;10.200;2023-03-23T02:23:37;13.90;89.00
20337;DHT22;10326;53.660;10.200;2023-03-23T02:26:24;13.90;89.10
20337;DHT22;10326;53.660;10.200;2023-03-23T02:29:13;13.90;88.80
20337;DHT22;10326;53.660;10.200;2023-03-23T02:32:04;13.90;88.80
20337;DHT22;10326;53.660;10.200;2023-03-23T02:34:49;13.90;88.90
20337;DHT22;10326;53.660;10.200;2023-03-23T02:37:23;13.90;88.70
20337;DHT22;10326;53.660;10.200;2023-03-23T02:39:56;13.90;89.00
20337;DHT22;10326;53.660;10.200;2023-03-23T02:42:27;13.90;89.00
20337;DHT22;10326;53.660;10.200;2023-03-23T02:44:59;13.90;89.00
20337;DHT22;10326;53.660;10.200;2023-03-23T02:47:29;13.90;88.90
20337;DHT22;10326;53.660;10.200;2023-03-23T02:50:00;13.90;89.00
20337;DHT22;10326;53.660;10.200;2023-03-23T02:52:29;13.90;89.10
20337;DHT22;10326;53.660;10.200;2023-03-23T02:54:59;13.80;89.20
20337;DHT22;10326;53.660;10.200;2023-03-23T02:57:27;13.80;89.20
20337;DHT22;10326;53.660;10.200;2023-03-23T02:59:58;13.90;89.30
20337;DHT22;10326;53.660;10.200;2023-03-23T03:02:27;13.90;89.40
20337;DHT22;10326;53.660;10.200;2023-03-23T03:05:03;13.80;89.40
20337;DHT22;10326;53.660;10.200;2023-03-23T03:08:06;13.90;89.60
20337;DHT22;10326;53.660;10.200;2023-03-23T03:10:46;13.90;90.00
20337;DHT22;10326;53.660;10.200;2023-03-23T03:13:25;13.90;89.70
20337;DHT22;10326;53.660;10.200;2023-03-23T03:16:02;13.80;89.80
20337;DHT22;10326;53.660;10.200;2023-03-23T03:18:34;13.90;89.70
20337;DHT22;10326;53.660;10.200;2023-03-23T03:21:09;13.90;89.80
20337;DHT22;10326;53.660;10.200;2023-03-23T03:23:43;13.90;90.00
20337;DHT22;10326;53.660;10.200;2023-03-23T03:26:12;13.90;89.80
20337;DHT22;10326;53.660;10.200;2023-03-23T03:28:49;13.90;89.80
20337;DHT22;10326;53.660;10.200;2023-03-23T03:31:21;13.90;90.10
20337;DHT22;10326;53.660;10.200;2023-03-23T03:33:50;13.90;90.00
20337;DHT22;10326;53.660;10.200;2023-03-23T03:36:22;13.90;90.00
20337;DHT22;10326;53.660;10.200;2023-03-23T03:38:53;13.90;90.30
20337;DHT22;10326;53.660;10.200;2023-03-23T03:41:24;13.90;90.00
20337;DHT22;10326;53.660;10.200;2023-03-23T03:43:52;13.90;90.00
20337;DHT22;10326;53.660;10.200;2023-03-23T03:46:19;13.90;90.00
20337;DHT22;10326;53.660;10.200;2023-03-23T03:48:46;14.00;90.00
20337;DHT22;10326;53.660;10.200;2023-03-23T03:51:13;14.00;90.00
20337;DHT22;10326;53.660;10.200;2023-03-23T03:53:48;14.00;90.00
20337;DHT22;10326;53.660;10.200;2023-03-23T03:56:15;14.00;90.10
20337;DHT22;10326;53.660;10.200;2023-03-23T03:58:50;14.00;90.00
20337;DHT22;10326;53.660;10.200;2023-03-23T04:01:23;14.00;90.10
20337;DHT22;10326;53.660;10.200;2023-03-23T04:03:51;14.00;90.30
20337;DHT22;10326;53.660;10.200;2023-03-23T04:06:26;14.00;90.00
20337;DHT22;10326;53.660;10.200;2023-03-23T04:08:56;14.00;90.00
20337;DHT22;10326;53.660;10.200;2023-03-23T04:11:25;14.00;90.30
20337;DHT22;10326;53.660;10.200;2023-03-23T04:13:59;14.00;90.10
20337;DHT22;10326;53.660;10.200;2023-03-23T04:16:38;14.00;90.10
20337;DHT22;10326;53.660;10.200;2023-03-23T04:19:06;14.00;90.10
20337;DHT22;10326;53.660;10.200;2023-03-23T04:21:34;14.00;90.10
20337;DHT22;10326;53.660;10.200;2023-03-23T04:24:03;14.00;90.10
20337;DHT22;10326;53.660;10.200;2023-03-23T04:26:30;14.00;90.10
20337;DHT22;10326;53.660;10.200;2023-03-23T04:29:03;14.00;90.10
20337;DHT22;10326;53.660;10.200;2023-03-23T04:31:54;14.00;90.10
20337;DHT22;10326;53.660;10.200;2023-03-23T04:34:30;14.00;90.10
20337;DHT22;10326;53.660;10.200;2023-03-23T04:36:58;14.00;90.20
20337;DHT22;10326;53.660;10.200;2023-03-23T04:39:29;14.00;90.20
20337;DHT22;10326;53.660;10.200;2023-03-23T04:41:59;14.00;90.30
20337;DHT22;10326;53.660;10.200;2023-03-23T04:44:46;14.00;90.30
20337;DHT22;10326;53.660;10.200;2023-03-23T04:47:19;14.00;90.20
20337;DHT22;10326;53.660;10.200;2023-03-23T04:49:53;14.00;90.20
20337;DHT22;10326;53.660;10.200;2023-03-23T04:52:30;14.00;90.20
20337;DHT22;10326;53.660;10.200;2023-03-23T04:55:02;14.00;90.20
20337;DHT22;10326;53.660;10.200;2023-03-23T04:57:30;14.00;90.50
20337;DHT22;10326;53.660;10.200;2023-03-23T05:00:17;14.00;90.20
20337;DHT22;10326;53.660;10.200;2023-03-23T05:02:52;14.00;90.20
20337;DHT22;10326;53.660;10.200;2023-03-23T05:05:24;14.10;90.20
20337;DHT22;10326;53.660;10.200;2023-03-23T05:07:54;14.10;90.20
20337;DHT22;10326;53.660;10.200;2023-03-23T05:10:26;14.10;90.20
20337;DHT22;10326;53.660;10.200;2023-03-23T05:13:00;14.10;90.30
20337;DHT22;10326;53.660;10.200;2023-03-23T05:15:27;14.10;90.20
20337;DHT22;10326;53.660;10.200;2023-03-23T05:17:56;14.10;90.20
20337;DHT22;10326;53.660;10.200;2023-03-23T05:20:25;14.10;90.20
20337;DHT22;10326;53.660;10.200;2023-03-23T05:22:58;14.10;90.20
20337;DHT22;10326;53.660;10.200;2023-03-23T05:25:35;14.10;90.20
20337;DHT22;10326;53.660;10.200;2023-03-23T05:28:17;14.10;90.20
20337;DHT22;10326;53.660;10.200;2023-03-23T05:31:08;14.10;90.10
20337;DHT22;10326;53.660;10.200;2023-03-23T05:33:35;14.10;90.10
20337;DHT22;10326;53.660;10.200;2023-03-23T05:36:35;14.10;90.10
20337;DHT22;10326;53.660;10.200;2023-03-23T05:39:35;14.10;90.10
20337;DHT22;10326;53.660;10.200;2023-03-23T05:42:21;14.10;90.10
20337;DHT22;10326;53.660;10.200;2023-03-23T05:45:05;14.10;90.10
20337;DHT22;10326;53.660;10.200;2023-03-23T05:47:34;14.10;90.20
20337;DHT22;10326;53.660;10.200;2023-03-23T05:50:09;14.10;90.20
20337;DHT22;10326;53.660;10.200;2023-03-23T05:52:39;14.10;90.20
20337;DHT22;10326;53.660;10.200;2023-03-23T05:55:10;14.10;90.20
20337;DHT22;10326;53.660;10.200;2023-03-23T05:57:41;14.20;90.20
20337;DHT22;10326;53.660;10.200;2023-03-23T06:00:19;14.20;90.20
20337;DHT22;10326;53.660;10.200;2023-03-23T06:02:55;14.20;90.30
20337;DHT22;10326;53.660;10.200;2023-03-23T06:05:33;14.20;90.30
20337;DHT22;10326;53.660;10.200;2023-03-23T06:08:00;14.20;90.20
20337;DHT22;10326;53.660;10.200;2023-03-23T06:10:27;14.20;90.20
20337;DHT22;10326;53.660;10.200;2023-03-23T06:13:02;14.20;90.20
20337;DHT22;10326;53.660;10.200;2023-03-23T06:15:38;14.20;90.10
20337;DHT22;10326;53.660;10.200;2023-03-23T06:18:30;14.20;90.10
20337;DHT22;10326;53.660;10.200;2023-03-23T06:21:17;14.20;90.10
20337;DHT22;10326;53.660;10.200;2023-03-23T06:23:55;14.20;90.10
20337;DHT22;10326;53.660;10.200;2023-03-23T06:26:30;14.20;90.00
20337;DHT22;10326;53.660;10.200;2023-03-23T06:29:03;14.20;90.10
20337;DHT22;10326;53.660;10.200;2023-03-23T06:31:38;14.20;90.10
20337;DHT22;10326;53.660;10.200;2023-03-23T06:34:07;14.20;90.00
20337;DHT22;10326;53.660;10.200;2023-03-23T06:36:53;14.20;90.10
20337;DHT22;10326;53.660;10.200;2023-03-23T06:39:35;14.20;90.10
20337;DHT22;10326;53.660;10.200;2023-03-23T06:42:28;14.20;90.10
20337;DHT22;10326;53.660;10.200;2023-03-23T06:45:16;14.20;90.10
20337;DHT22;10326;53.660;10.200;2023-03-23T06:47:46;14.20;90.10
20337;DHT22;10326;53.660;10.200;2023-03-23T06:50:14;14.20;90.10
20337;DHT22;10326;53.660;10.200;2023-03-23T06:52:45;14.30;90.20
20337;DHT22;10326;53.660;10.200;2023-03-23T06:55:13;14.30;90.20
20337;DHT22;10326;53.660;10.200;2023-03-23T06:57:41;14.30;90.20
20337;DHT22;10326;53.660;10.200;2023-03-23T07:00:11;14.30;90.20
20337;DHT22;10326;53.660;10.200;2023-03-23T07:02:43;14.30;90.20
20337;DHT22;10326;53.660;10.200;2023-03-23T07:05:11;14.30;90.20
20337;DHT22;10326;53.660;10.200;2023-03-23T07:07:40;14.30;90.20
20337;DHT22;10326;53.660;10.200;2023-03-23T07:10:30;14.40;90.20
20337;DHT22;10326;53.660;10.200;2023-03-23T07:13:00;14.40;90.10
20337;DHT22;10326;53.660;10.200;2023-03-23T07:15:38;14.40;90.20
20337;DHT22;10326;53.660;10.200;2023-03-23T07:18:07;14.40;90.20
20337;DHT22;10326;53.660;10.200;2023-03-23T07:20:41;14.40;90.10
20337;DHT22;10326;53.660;10.200;2023-03-23T07:23:08;14.50;90.10
20337;DHT22;10326;53.660;10.200;2023-03-23T07:25:43;14.50;90.10
20337;DHT22;10326;53.660;10.200;2023-03-23T07:28:16;14.50;90.10
20337;DHT22;10326;53.660;10.200;2023-03-23T07:30:45;14.50;90.10
20337;DHT22;10326;53.660;10.200;2023-03-23T07:33:14;14.50;90.00
20337;DHT22;10326;53.660;10.200;2023-03-23T07:35:42;14.50;90.00
20337;DHT22;10326;53.660;10.200;2023-03-23T07:38:14;14.50;90.10
20337;DHT22;10326;53.660;10.200;2023-03-23T07:40:46;14.60;90.00
20337;DHT22;10326;53.660;10.200;2023-03-23T07:43:16;14.60;90.00
20337;DHT22;10326;53.660;10.200;2023-03-23T07:46:19;14.60;90.00
20337;DHT22;10326;53.660;10.200;2023-03-23T07:48:58;14.60;90.00
20337;DHT22;10326;53.660;10.200;2023-03-23T07:51:35;14.70;89.90
20337;DHT22;10326;53.660;10.200;2023-03-23T07:54:04;14.70;89.70
20337;DHT22;10326;53.660;10.200;2023-03-23T07:56:53;14.70;89.70
20337;DHT22;10326;53.660;10.200;2023-03-23T07:59:25;14.70;89.50
20337;DHT22;10326;53.660;10.200;2023-03-23T08:01:53;14.70;89.50
20337;DHT22;10326;53.660;10.200;2023-03-23T08:04:54;14.80;89.50
20337;DHT22;10326;53.660;10.200;2023-03-23T08:07:37;14.80;89.50
20337;DHT22;10326;53.660;10.200;2023-03-23T08:10:24;14.70;89.40
20337;DHT22;10326;53.660;10.200;2023-03-23T08:12:56;14.70;89.50
20337;DHT22;10326;53.660;10.200;2023-03-23T08:15:43;14.70;89.70
20337;DHT22;10326;53.660;10.200;2023-03-23T08:18:27;14.70;89.80
20337;DHT22;10326;53.660;10.200;2023-03-23T08:21:08;14.60;90.00
20337;DHT22;10326;53.660;10.200;2023-03-23T08:23:54;14.60;90.00
20337;DHT22;10326;53.660;10.200;2023-03-23T08:26:30;14.50;89.30
20337;DHT22;10326;53.660;10.200;2023-03-23T08:29:18;14.40;88.80
20337;DHT22;10326;53.660;10.200;2023-03-23T08:32:04;14.30;88.60
20337;DHT22;10326;53.660;10.200;2023-03-23T08:34:44;14.20;88.40
20337;DHT22;10326;53.660;10.200;2023-03-23T08:37:31;14.10;88.30
20337;DHT22;10326;53.660;10.200;2023-03-23T08:40:20;13.90;88.40
20337;DHT22;10326;53.660;10.200;2023-03-23T08:42:58;13.70;88.40
20337;DHT22;10326;53.660;10.200;2023-03-23T08:45:34;13.60;88.60
20337;DHT22;10326;53.660;10.200;2023-03-23T08:48:02;13.50;88.80
20337;DHT22;10326;53.660;10.200;2023-03-23T08:50:35;13.40;89.00
20337;DHT22;10326;53.660;10.200;2023-03-23T08:53:22;13.40;89.30
20337;DHT22;10326;53.660;10.200;2023-03-23T08:56:19;13.40;89.50
20337;DHT22;10326;53.660;10.200;2023-03-23T08:59:15;13.40;89.70
20337;DHT22;10326;53.660;10.200;2023-03-23T09:01:56;13.40;90.00
20337;DHT22;10326;53.660;10.200;2023-03-23T09:04:42;13.40;90.00
20337;DHT22;10326;53.660;10.200;2023-03-23T09:07:10;13.50;90.20
20337;DHT22;10326;53.660;10.200;2023-03-23T09:09:41;13.50;90.20
20337;DHT22;10326;53.660;10.200;2023-03-23T09:12:09;13.60;90.30
20337;DHT22;10326;53.660;10.200;2023-03-23T09:14:37;13.70;90.30
20337;DHT22;10326;53.660;10.200;2023-03-23T09:17:05;13.70;90.40
20337;DHT22;10326;53.660;10.200;2023-03-23T09:19:33;13.80;90.50
20337;DHT22;10326;53.660;10.200;2023-03-23T09:22:02;13.80;90.50
20337;DHT22;10326;53.660;10.200;2023-03-23T09:24:29;13.90;90.50
20337;DHT22;10326;53.660;10.200;2023-03-23T09:26:58;14.00;90.50
20337;DHT22;10326;53.660;10.200;2023-03-23T09:29:25;14.00;90.50
20337;DHT22;10326;53.660;10.200;2023-03-23T09:31:53;14.10;90.40
20337;DHT22;10326;53.660;10.200;2023-03-23T09:34:21;14.10;90.40
20337;DHT22;10326;53.660;10.200;2023-03-23T09:36:49;14.20;90.40
20337;DHT22;10326;53.660;10.200;2023-03-23T09:39:17;14.20;90.30
20337;DHT22;10326;53.660;10.200;2023-03-23T09:44:50;14.30;90.20
20337;DHT22;10326;53.660;10.200;2023-03-23T09:47:32;14.30;90.10
20337;DHT22;10326;53.660;10.200;2023-03-23T09:50:09;14.30;90.10
20337;DHT22;10326;53.660;10.200;2023-03-23T09:52:42;14.40;90.00
20337;DHT22;10326;53.660;10.200;2023-03-23T09:55:13;14.40;90.00
20337;DHT22;10326;53.660;10.200;2023-03-23T09:57:47;14.40;89.90
20337;DHT22;10326;53.660;10.200;2023-03-23T10:00:21;14.40;89.90
20337;DHT22;10326;53.660;10.200;2023-03-23T10:02:56;14.50;89.90
20337;DHT22;10326;53.660;10.200;2023-03-23T10:05:31;14.50;89.60
20337;DHT22;10326;53.660;10.200;2023-03-23T10:08:01;14.50;89.50
20337;DHT22;10326;53.660;10.200;2023-03-23T10:10:37;14.50;89.50
20337;DHT22;10326;53.660;10.200;2023-03-23T10:13:18;14.60;89.70
20337;DHT22;10326;53.660;10.200;2023-03-23T10:15:50;14.60;89.40
20337;DHT22;10326;53.660;10.200;2023-03-23T10:18:23;14.60;89.30
20337;DHT22;10326;53.660;10.200;2023-03-23T10:20:56;14.70;89.20
20337;DHT22;10326;53.660;10.200;2023-03-23T10:23:43;14.70;89.20
20337;DHT22;10326;53.660;10.200;2023-03-23T10:26:26;14.70;88.90
20337;DHT22;10326;53.660;10.200;2023-03-23T10:29:09;14.80;88.90
20337;DHT22;10326;53.660;10.200;2023-03-23T10:31:44;14.80;88.50
20337;DHT22;10326;53.660;10.200;2023-03-23T10:34:17;14.80;88.10
20337;DHT22;10326;53.660;10.200;2023-03-23T10:36:55;14.80;88.20
20337;DHT22;10326;53.660;10.200;2023-03-23T10:39:30;14.80;88.10
20337;DHT22;10326;53.660;10.200;2023-03-23T10:42:00;14.80;88.20
20337;DHT22;10326;53.660;10.200;2023-03-23T10:44:34;14.90;88.40
20337;DHT22;10326;53.660;10.200;2023-03-23T10:47:03;14.90;88.40
20337;DHT22;10326;53.660;10.200;2023-03-23T10:49:36;15.00;88.50
20337;DHT22;10326;53.660;10.200;2023-03-23T10:52:12;15.00;88.30
20337;DHT22;10326;53.660;10.200;2023-03-23T10:54:51;15.10;87.80
20337;DHT22;10326;53.660;10.200;2023-03-23T10:57:23;15.20;86.60
20337;DHT22;10326;53.660;10.200;2023-03-23T11:00:00;15.20;86.70
20337;DHT22;10326;53.660;10.200;2023-03-23T11:02:37;15.20;86.40
20337;DHT22;10326;53.660;10.200;2023-03-23T11:05:16;15.20;86.60
20337;DHT22;10326;53.660;10.200;2023-03-23T11:07:52;15.20;86.50
20337;DHT22;10326;53.660;10.200;2023-03-23T11:10:23;15.20;86.20
20337;DHT22;10326;53.660;10.200;2023-03-23T11:12:51;15.20;86.30
20337;DHT22;10326;53.660;10.200;2023-03-23T11:15:30;15.20;86.30
20337;DHT22;10326;53.660;10.200;2023-03-23T11:18:00;15.20;86.10
20337;DHT22;10326;53.660;10.200;2023-03-23T11:20:33;15.20;86.30
20337;DHT22;10326;53.660;10.200;2023-03-23T11:23:09;15.20;86.60
20337;DHT22;10326;53.660;10.200;2023-03-23T11:26:06;15.20;86.40
20337;DHT22;10326;53.660;10.200;2023-03-23T11:28:42;15.30;86.40
20337;DHT22;10326;53.660;10.200;2023-03-23T11:31:12;15.30;86.20
20337;DHT22;10326;53.660;10.200;2023-03-23T11:33:48;15.30;86.30
20337;DHT22;10326;53.660;10.200;2023-03-23T11:36:18;15.40;85.60
20337;DHT22;10326;53.660;10.200;2023-03-23T11:38:46;15.40;85.70
20337;DHT22;10326;53.660;10.200;2023-03-23T11:41:18;15.40;84.50
20337;DHT22;10326;53.660;10.200;2023-03-23T11:43:46;15.50;84.10
20337;DHT22;10326;53.660;10.200;2023-03-23T11:46:25;15.50;84.20
20337;DHT22;10326;53.660;10.200;2023-03-23T11:49:01;15.50;83.70
20337;DHT22;10326;53.660;10.200;2023-03-23T11:51:34;15.50;83.50
20337;DHT22;10326;53.660;10.200;2023-03-23T11:54:12;15.60;83.30
20337;DHT22;10326;53.660;10.200;2023-03-23T11:56:44;15.60;83.30
20337;DHT22;10326;53.660;10.200;2023-03-23T11:59:13;15.60;83.00
20337;DHT22;10326;53.660;10.200;2023-03-23T12:01:51;15.70;82.70
20337;DHT22;10326;53.660;10.200;2023-03-23T12:04:40;15.70;82.50
20337;DHT22;10326;53.660;10.200;2023-03-23T12:07:45;15.70;81.80
20337;DHT22;10326;53.660;10.200;2023-03-23T12:10:25;15.80;81.60
20337;DHT22;10326;53.660;10.200;2023-03-23T12:13:05;15.80;80.60
20337;DHT22;10326;53.660;10.200;2023-03-23T12:15:47;15.80;81.30
20337;DHT22;10326;53.660;10.200;2023-03-23T12:18:24;15.70;82.00
20337;DHT22;10326;53.660;10.200;2023-03-23T12:21:03;15.80;82.50
20337;DHT22;10326;53.660;10.200;2023-03-23T12:23:44;15.70;82.80
20337;DHT22;10326;53.660;10.200;2023-03-23T12:26:19;15.70;83.00
20337;DHT22;10326;53.660;10.200;2023-03-23T12:29:01;15.70;83.20
20337;DHT22;10326;53.660;10.200;2023-03-23T12:32:02;15.70;83.70
20337;DHT22;10326;53.660;10.200;2023-03-23T12:34:47;15.70;83.90
20337;DHT22;10326;53.660;10.200;2023-03-23T12:37:27;15.70;83.90
20337;DHT22;10326;53.660;10.200;2023-03-23T12:40:25;15.70;84.10
20337;DHT22;10326;53.660;10.200;2023-03-23T12:43:04;15.70;84.10
20337;DHT22;10326;53.660;10.200;2023-03-23T12:48:44;15.70;84.20
20337;DHT22;10326;53.660;10.200;2023-03-23T12:51:19;15.70;84.40
20337;DHT22;10326;53.660;10.200;2023-03-23T12:53:56;15.70;84.80
20337;DHT22;10326;53.660;10.200;2023-03-23T12:56:32;15.70;84.80
20337;DHT22;10326;53.660;10.200;2023-03-23T12:59:13;15.70;84.80
20337;DHT22;10326;53.660;10.200;2023-03-23T13:01:47;15.80;85.00
20337;DHT22;10326;53.660;10.200;2023-03-23T13:04:20;15.80;84.80
20337;DHT22;10326;53.660;10.200;2023-03-23T13:06:51;15.80;84.80
20337;DHT22;10326;53.660;10.200;2023-03-23T13:09:27;15.80;84.70
20337;DHT22;10326;53.660;10.200;2023-03-23T13:12:00;15.80;85.40
20337;DHT22;10326;53.660;10.200;2023-03-23T13:14:37;15.80;85.00
20337;DHT22;10326;53.660;10.200;2023-03-23T13:17:15;15.80;85.70
20337;DHT22;10326;53.660;10.200;2023-03-23T13:23:13;16.00;86.70
20337;DHT22;10326;53.660;10.200;2023-03-23T13:25:50;16.10;87.10
20337;DHT22;10326;53.660;10.200;2023-03-23T13:28:20;16.30;86.70
20337;DHT22;10326;53.660;10.200;2023-03-23T13:30:56;16.40;86.00
20337;DHT22;10326;53.660;10.200;2023-03-23T13:33:28;16.60;86.20
20337;DHT22;10326;53.660;10.200;2023-03-23T13:36:04;16.70;85.60
20337;DHT22;10326;53.660;10.200;2023-03-23T13:38:35;16.80;85.10
20337;DHT22;10326;53.660;10.200;2023-03-23T13:41:08;16.90;85.20
20337;DHT22;10326;53.660;10.200;2023-03-23T13:43:39;16.90;84.30
20337;DHT22;10326;53.660;10.200;2023-03-23T13:46:24;17.00;84.30
20337;DHT22;10326;53.660;10.200;2023-03-23T13:49:17;17.00;83.30
20337;DHT22;10326;53.660;10.200;2023-03-23T13:51:59;17.10;81.80
20337;DHT22;10326;53.660;10.200;2023-03-23T13:54:40;17.00;81.80
20337;DHT22;10326;53.660;10.200;2023-03-23T13:57:48;16.90;81.80
20337;DHT22;10326;53.660;10.200;2023-03-23T14:00:37;16.90;81.60
20337;DHT22;10326;53.660;10.200;2023-03-23T14:03:15;16.80;81.20
20337;DHT22;10326;53.660;10.200;2023-03-23T14:05:45;16.70;81.50
20337;DHT22;10326;53.660;10.200;2023-03-23T14:08:22;16.70;81.60
20337;DHT22;10326;53.660;10.200;2023-03-23T14:10:54;16.60;81.70
20337;DHT22;10326;53.660;10.200;2023-03-23T14:13:30;16.50;79.50
20337;DHT22;10326;53.660;10.200;2023-03-23T14:16:01;16.30;78.80
20337;DHT22;10326;53.660;10.200;2023-03-23T14:18:35;15.90;79.00
20337;DHT22;10326;53.660;10.200;2023-03-23T14:21:04;15.60;80.10
20337;DHT22;10326;53.660;10.200;2023-03-23T14:23:33;15.30;81.90
20337;DHT22;10326;53.660;10.200;2023-03-23T14:26:09;15.00;82.90
20337;DHT22;10326;53.660;10.200;2023-03-23T14:28:41;14.70;83.10
20337;DHT22;10326;53.660;10.200;2023-03-23T14:31:17;14.50;84.50
20337;DHT22;10326;53.660;10.200;2023-03-23T14:33:46;14.20;84.60
20337;DHT22;10326;53.660;10.200;2023-03-23T14:36:15;14.10;85.80
20337;DHT22;10326;53.660;10.200;2023-03-23T14:38:47;13.90;86.60
20337;DHT22;10326;53.660;10.200;2023-03-23T14:41:16;13.70;87.60
20337;DHT22;10326;53.660;10.200;2023-03-23T14:43:45;13.60;89.10
20337;DHT22;10326;53.660;10.200;2023-03-23T14:46:13;13.60;89.90
20337;DHT22;10326;53.660;10.200;2023-03-23T14:48:41;13.50;90.40
20337;DHT22;10326;53.660;10.200;2023-03-23T14:51:17;13.60;90.80
20337;DHT22;10326;53.660;10.200;2023-03-23T14:53:46;13.60;90.90
20337;DHT22;10326;53.660;10.200;2023-03-23T14:56:22;13.70;91.40
20337;DHT22;10326;53.660;10.200;2023-03-23T14:58:53;13.80;91.50
20337;DHT22;10326;53.660;10.200;2023-03-23T15:01:24;13.90;91.60
20337;DHT22;10326;53.660;10.200;2023-03-23T15:03:56;14.00;91.60
20337;DHT22;10326;53.660;10.200;2023-03-23T15:06:30;14.10;91.60
20337;DHT22;10326;53.660;10.200;2023-03-23T15:09:02;14.20;91.60
20337;DHT22;10326;53.660;10.200;2023-03-23T15:11:34;14.20;91.60
20337;DHT22;10326;53.660;10.200;2023-03-23T15:14:08;14.30;91.50
20337;DHT22;10326;53.660;10.200;2023-03-23T15:16:46;14.40;91.20
20337;DHT22;10326;53.660;10.200;2023-03-23T15:19:18;14.50;91.20
20337;DHT22;10326;53.660;10.200;2023-03-23T15:21:49;14.50;91.20
20337;DHT22;10326;53.660;10.200;2023-03-23T15:24:26;14.50;91.30
20337;DHT22;10326;53.660;10.200;2023-03-23T15:27:11;14.60;90.60
20337;DHT22;10326;53.660;10.200;2023-03-23T15:29:50;14.60;90.60
20337;DHT22;10326;53.660;10.200;2023-03-23T15:32:25;14.70;90.50
20337;DHT22;10326;53.660;10.200;2023-03-23T15:34:54;14.70;90.70
20337;DHT22;10326;53.660;10.200;2023-03-23T15:37:26;14.70;91.00
20337;DHT22;10326;53.660;10.200;2023-03-23T15:39:55;14.80;90.80
20337;DHT22;10326;53.660;10.200;2023-03-23T15:42:29;14.70;90.70
20337;DHT22;10326;53.660;10.200;2023-03-23T15:45:15;14.80;90.50
20337;DHT22;10326;53.660;10.200;2023-03-23T15:47:49;14.80;90.50
20337;DHT22;10326;53.660;10.200;2023-03-23T15:50:18;14.80;90.70
20337;DHT22;10326;53.660;10.200;2023-03-23T15:52:47;14.80;90.70
20337;DHT22;10326;53.660;10.200;2023-03-23T15:55:21;14.80;90.60
20337;DHT22;10326;53.660;10.200;2023-03-23T15:57:52;14.80;90.40
20337;DHT22;10326;53.660;10.200;2023-03-23T16:00:21;14.80;90.50
20337;DHT22;10326;53.660;10.200;2023-03-23T16:02:54;14.80;90.50
20337;DHT22;10326;53.660;10.200;2023-03-23T16:05:23;14.80;90.40
20337;DHT22;10326;53.660;10.200;2023-03-23T16:07:50;14.80;90.40
20337;DHT22;10326;53.660;10.200;2023-03-23T16:10:20;14.80;90.40
20337;DHT22;10326;53.660;10.200;2023-03-23T16:12:48;14.70;90.20